Time;durP1;ratioP1;P1;durP2;ratioP2;P2;SDS_P1;SDS_P2;PMS_P1;PMS_P2;Temp;Humidity;BMP_temperature;BMP_pressure;BME280_temperature;BME280_humidity;BME280_pressure;Samples;Min_cycle;Max_cycle;Signal;HPM_P1;HPM_P2
2021/10/10 00:01:42;;;;;;;86.47;44.77;;;12.50;82.30;;;;;;4963040;29;20408;-94
2021/10/10 00:04:09;;;;;;;89.00;47.22;;;12.60;81.80;;;;;;4955300;29;20200;-92
2021/10/10 00:06:35;;;;;;;74.28;45.00;;;12.60;81.40;;;;;;4971627;29;20185;-93
2021/10/10 00:09:02;;;;;;;97.65;48.03;;;12.50;81.10;;;;;;4961135;29;20184;-93
2021/10/10 00:11:28;;;;;;;85.82;45.42;;;12.50;81.00;;;;;;4962851;29;20188;-94
2021/10/10 00:13:54;;;;;;;88.43;46.00;;;12.50;80.90;;;;;;4979000;28;20223;-94
2021/10/10 00:16:20;;;;;;;78.80;43.70;;;12.50;80.80;;;;;;4968297;29;20464;-94
2021/10/10 00:18:46;;;;;;;79.68;46.28;;;12.50;80.80;;;;;;4947277;29;20442;-94
2021/10/10 00:21:12;;;;;;;79.68;43.50;;;12.30;80.60;;;;;;4966128;29;20221;-93
2021/10/10 00:23:38;;;;;;;81.90;50.00;;;12.40;80.70;;;;;;4965444;29;20200;-93
2021/10/10 00:26:03;;;;;;;79.85;46.72;;;12.40;80.70;;;;;;4968060;28;20207;-94
2021/10/10 00:28:29;;;;;;;79.37;48.10;;;12.40;80.70;;;;;;4960905;28;20187;-94
2021/10/10 00:30:57;;;;;;;82.47;44.80;;;12.30;80.80;;;;;;4980048;28;20207;-93
2021/10/10 00:33:26;;;;;;;92.15;45.55;;;12.30;80.90;;;;;;4963965;28;20444;-94
2021/10/10 00:35:52;;;;;;;80.35;45.15;;;12.30;80.90;;;;;;4963717;28;20228;-96
2021/10/10 00:38:18;;;;;;;79.67;43.97;;;12.20;80.90;;;;;;4963865;28;20181;-95
2021/10/10 00:40:44;;;;;;;82.53;45.27;;;12.30;81.00;;;;;;4964245;28;20421;-93
2021/10/10 00:43:10;;;;;;;80.87;46.97;;;12.40;80.90;;;;;;4963373;28;20220;-91
2021/10/10 00:45:36;;;;;;;82.82;47.00;;;12.40;80.80;;;;;;4979887;28;20428;-94
2021/10/10 00:48:02;;;;;;;107.90;48.78;;;12.30;80.70;;;;;;4978495;28;20185;-93
2021/10/10 00:50:31;;;;;;;90.00;47.22;;;12.30;80.50;;;;;;4947223;29;20240;-93
2021/10/10 00:52:58;;;;;;;92.70;48.00;;;12.10;80.70;;;;;;4942710;29;20232;-94
2021/10/10 00:55:26;;;;;;;87.72;47.25;;;11.90;81.20;;;;;;4948293;28;20195;-93
2021/10/10 00:57:53;;;;;;;83.57;46.20;;;12.00;81.70;;;;;;4983639;28;20180;-95
2021/10/10 01:00:22;;;;;;;88.45;48.85;;;12.00;81.70;;;;;;4984453;28;20278;-94
2021/10/10 01:02:50;;;;;;;77.35;47.65;;;12.00;81.60;;;;;;4983987;28;20200;-94
2021/10/10 01:05:16;;;;;;;82.70;48.08;;;11.90;81.70;;;;;;4984380;28;20249;-94
2021/10/10 01:07:42;;;;;;;92.60;48.27;;;11.90;81.80;;;;;;4984716;28;20667;-93
2021/10/10 01:10:11;;;;;;;83.57;45.90;;;11.90;81.80;;;;;;4979664;28;20661;-95
2021/10/10 01:12:38;;;;;;;81.72;44.60;;;12.00;81.60;;;;;;4965785;28;20523;-94
2021/10/10 01:15:05;;;;;;;80.90;47.42;;;12.00;81.40;;;;;;4966609;29;20216;-94
2021/10/10 01:17:30;;;;;;;88.18;49.92;;;12.00;81.20;;;;;;4966106;29;20203;-94
2021/10/10 01:19:57;;;;;;;88.20;50.23;;;11.90;81.40;;;;;;4965639;29;20185;-94
2021/10/10 01:22:23;;;;;;;87.68;47.85;;;11.80;81.40;;;;;;4965835;28;20219;-95
2021/10/10 01:24:49;;;;;;;91.60;49.20;;;11.70;81.90;;;;;;4963081;29;20181;-94
2021/10/10 01:27:15;;;;;;;104.43;48.90;;;11.70;82.10;;;;;;4964957;29;20185;-94
2021/10/10 01:29:41;;;;;;;93.97;48.33;;;11.70;82.20;;;;;;4964529;29;20428;-94
2021/10/10 01:32:07;;;;;;;86.83;48.83;;;11.80;82.10;;;;;;4964783;29;20428;-94
2021/10/10 01:34:33;;;;;;;76.68;44.83;;;11.80;82.00;;;;;;4965332;29;20239;-94
2021/10/10 01:37:01;;;;;;;82.35;44.97;;;11.80;81.80;;;;;;4963126;29;20192;-93
2021/10/10 01:39:28;;;;;;;88.20;49.85;;;11.70;81.80;;;;;;4941209;29;20268;-93
2021/10/10 01:41:54;;;;;;;86.50;49.78;;;11.70;81.80;;;;;;4956437;29;20313;-94
2021/10/10 01:44:20;;;;;;;84.80;46.17;;;11.70;81.80;;;;;;4957371;28;20235;-91
2021/10/10 01:46:45;;;;;;;101.00;53.27;;;11.50;82.00;;;;;;4939740;29;20680;-91
2021/10/10 01:49:12;;;;;;;96.73;48.07;;;11.40;82.30;;;;;;4939932;29;20188;-92
2021/10/10 01:51:38;;;;;;;84.68;46.35;;;11.50;82.70;;;;;;4940159;29;20193;-92
2021/10/10 01:54:04;;;;;;;82.30;46.30;;;11.50;82.50;;;;;;4943109;28;20265;-92
2021/10/10 01:56:31;;;;;;;84.57;46.25;;;11.40;82.40;;;;;;4974663;28;20419;-91
2021/10/10 01:58:56;;;;;;;84.20;47.03;;;11.50;82.50;;;;;;4974873;28;20246;-92
2021/10/10 02:01:22;;;;;;;87.50;45.17;;;11.60;82.30;;;;;;4977248;28;20191;-94
2021/10/10 02:03:48;;;;;;;81.90;45.80;;;11.60;82.00;;;;;;4981621;28;20191;-93
2021/10/10 02:06:14;;;;;;;77.43;45.70;;;11.70;82.00;;;;;;4978167;28;20494;-94
2021/10/10 02:08:39;;;;;;;79.60;43.50;;;11.60;81.70;;;;;;4979150;28;20207;-93
2021/10/10 02:11:05;;;;;;;80.77;45.37;;;11.70;81.70;;;;;;4961951;28;20187;-93
2021/10/10 02:13:31;;;;;;;84.27;45.27;;;11.60;81.30;;;;;;4960173;28;20212;-93
2021/10/10 02:15:57;;;;;;;86.80;47.95;;;11.50;81.50;;;;;;4956277;28;20212;-93
2021/10/10 02:18:24;;;;;;;90.57;48.47;;;11.30;81.80;;;;;;4957357;29;20184;-93
2021/10/10 02:20:50;;;;;;;89.78;46.83;;;11.30;82.00;;;;;;4962081;29;20177;-94
2021/10/10 02:23:16;;;;;;;71.30;41.67;;;11.50;82.00;;;;;;4959259;28;20200;-92
2021/10/10 02:25:42;;;;;;;70.90;40.27;;;11.50;81.70;;;;;;4956912;28;20545;-93
2021/10/10 02:28:07;;;;;;;83.83;44.00;;;11.40;81.50;;;;;;4957958;29;20420;-93
2021/10/10 02:30:33;;;;;;;81.67;46.70;;;11.30;81.80;;;;;;4956443;29;20275;-93
2021/10/10 02:32:59;;;;;;;76.32;45.20;;;11.20;82.00;;;;;;4957926;28;20224;-93
2021/10/10 02:35:58;;;;;;;79.40;45.17;;;11.10;82.40;;;;;;4957162;29;20311;-93
2021/10/10 02:38:23;;;;;;;88.70;44.80;;;11.10;82.50;;;;;;4942533;29;20177;-94
2021/10/10 02:40:49;;;;;;;82.80;41.60;;;11.40;82.30;;;;;;4958672;29;20180;-93
2021/10/10 02:43:17;;;;;;;74.80;42.27;;;11.50;81.80;;;;;;4959098;28;20200;-93
2021/10/10 02:45:42;;;;;;;73.65;41.20;;;11.60;81.40;;;;;;4957267;29;20275;-93
2021/10/10 02:48:08;;;;;;;67.50;42.30;;;11.60;81.10;;;;;;4955327;29;20212;-93
2021/10/10 02:50:34;;;;;;;80.43;45.83;;;11.40;81.00;;;;;;4954988;29;20177;-93
2021/10/10 02:53:00;;;;;;;70.60;41.50;;;11.20;81.40;;;;;;4955371;29;20583;-93
2021/10/10 02:55:25;;;;;;;74.53;42.20;;;11.30;81.80;;;;;;4955718;29;20835;-94
2021/10/10 02:57:51;;;;;;;67.93;40.77;;;11.30;81.60;;;;;;4959511;29;20180;-94
2021/10/10 03:00:17;;;;;;;56.90;37.20;;;11.20;81.30;;;;;;4957497;29;20189;-94
2021/10/10 03:02:42;;;;;;;86.53;43.27;;;11.30;81.40;;;;;;4956869;29;20256;-94
2021/10/10 03:05:08;;;;;;;68.63;37.00;;;11.30;81.20;;;;;;4941574;29;20212;-94
2021/10/10 03:07:34;;;;;;;73.87;41.17;;;11.40;81.00;;;;;;4956958;29;20491;-94
2021/10/10 03:10:00;;;;;;;77.50;38.73;;;11.40;80.80;;;;;;4940745;29;20520;-94
2021/10/10 03:12:26;;;;;;;78.10;43.13;;;11.40;80.70;;;;;;4941560;28;20293;-94
2021/10/10 03:14:51;;;;;;;75.75;43.67;;;11.50;80.80;;;;;;4940839;29;20216;-94
2021/10/10 03:17:17;;;;;;;81.80;43.70;;;11.40;80.70;;;;;;4941565;29;20191;-95
2021/10/10 03:19:43;;;;;;;73.37;41.23;;;11.30;80.80;;;;;;4941727;29;20203;-94
2021/10/10 03:22:08;;;;;;;80.93;45.60;;;11.30;81.00;;;;;;4927397;29;20338;-95
2021/10/10 03:25:08;;;;;;;98.63;43.60;;;11.30;81.00;;;;;;4944199;29;20204;-94
2021/10/10 03:27:33;;;;;;;83.65;41.80;;;11.30;81.10;;;;;;4929253;29;20212;-94
2021/10/10 03:29:59;;;;;;;89.53;46.47;;;11.40;81.10;;;;;;4960380;29;20196;-94
2021/10/10 03:32:25;;;;;;;70.97;41.80;;;11.30;81.00;;;;;;4960820;29;20419;-95
2021/10/10 03:34:52;;;;;;;85.00;43.50;;;11.20;81.10;;;;;;4961727;29;20215;-95
2021/10/10 03:37:17;;;;;;;75.35;42.33;;;11.20;81.20;;;;;;4946115;29;20169;-94
2021/10/10 03:39:43;;;;;;;84.00;45.37;;;11.10;81.20;;;;;;4941195;29;20188;-94
2021/10/10 03:42:09;;;;;;;86.20;47.27;;;10.90;81.70;;;;;;4941687;29;20485;-95
2021/10/10 03:44:34;;;;;;;84.30;45.77;;;10.80;82.20;;;;;;4942270;29;20203;-93
2021/10/10 03:47:00;;;;;;;86.03;48.00;;;10.80;83.30;;;;;;4939501;29;20182;-93
2021/10/10 03:49:26;;;;;;;87.70;44.90;;;10.70;82.80;;;;;;4938955;29;20223;-94
2021/10/10 03:51:52;;;;;;;85.37;47.10;;;10.60;83.10;;;;;;4939555;29;20425;-93
2021/10/10 03:56:53;;;;;;;90.82;46.28;;;10.60;83.20;;;;;;4947663;29;20508;-95
2021/10/10 03:59:23;;;;;;;99.03;51.30;;;10.50;83.50;;;;;;4926507;29;20188;-95
2021/10/10 04:01:49;;;;;;;101.32;46.95;;;10.50;83.70;;;;;;4925380;29;20165;-94
2021/10/10 04:04:16;;;;;;;90.50;47.00;;;10.50;83.80;;;;;;4927068;29;20223;-94
2021/10/10 04:06:42;;;;;;;92.63;47.10;;;10.70;83.80;;;;;;4940790;29;20425;-94
2021/10/10 04:09:08;;;;;;;93.43;45.40;;;10.60;83.40;;;;;;4942778;29;20219;-95
2021/10/10 04:11:34;;;;;;;76.17;41.77;;;10.80;83.20;;;;;;4956346;29;20192;-95
2021/10/10 04:13:59;;;;;;;74.50;42.27;;;11.00;82.70;;;;;;4949891;29;20204;-94
2021/10/10 04:16:25;;;;;;;74.43;43.10;;;11.10;82.10;;;;;;4941562;29;20469;-95
2021/10/10 04:18:51;;;;;;;70.27;39.03;;;11.10;81.50;;;;;;4947728;29;20428;-95
2021/10/10 04:21:17;;;;;;;78.20;43.27;;;11.00;81.20;;;;;;4935283;29;20185;-95
2021/10/10 04:23:42;;;;;;;80.23;45.50;;;10.90;81.40;;;;;;4946750;29;20734;-94
2021/10/10 04:26:08;;;;;;;72.07;42.47;;;10.90;81.20;;;;;;4945456;29;20660;-95
2021/10/10 04:28:34;;;;;;;74.33;41.90;;;10.90;81.40;;;;;;4948007;29;20182;-94
2021/10/10 04:30:59;;;;;;;71.07;40.80;;;10.90;81.20;;;;;;4945649;29;20192;-95
2021/10/10 04:33:25;;;;;;;79.87;40.43;;;10.60;81.10;;;;;;4945570;29;20212;-95
2021/10/10 04:35:51;;;;;;;80.23;41.00;;;10.50;81.70;;;;;;4944257;29;20707;-95
2021/10/10 04:38:16;;;;;;;78.03;41.60;;;10.40;82.20;;;;;;4945045;29;20195;-94
2021/10/10 04:40:43;;;;;;;77.93;43.87;;;10.40;82.50;;;;;;4944726;29;20185;-95
2021/10/10 04:43:09;;;;;;;83.72;44.28;;;10.40;82.70;;;;;;4945232;29;20204;-95
2021/10/10 04:45:35;;;;;;;76.90;40.30;;;10.60;82.80;;;;;;4944054;29;20187;-94
2021/10/10 04:48:02;;;;;;;80.78;43.95;;;10.50;82.30;;;;;;4945256;29;20181;-95
2021/10/10 04:50:27;;;;;;;80.82;39.50;;;10.40;82.30;;;;;;4947314;29;20181;-94
2021/10/10 04:52:53;;;;;;;90.83;42.93;;;10.40;82.50;;;;;;4952322;29;20196;-95
2021/10/10 04:55:19;;;;;;;73.17;38.07;;;10.30;82.80;;;;;;4955700;29;20204;-94
2021/10/10 04:57:45;;;;;;;79.90;40.07;;;10.40;82.90;;;;;;4956939;29;20219;-95
2021/10/10 05:00:11;;;;;;;88.73;44.00;;;10.30;82.80;;;;;;4955398;29;20200;-95
2021/10/10 05:02:37;;;;;;;79.15;39.83;;;10.30;82.90;;;;;;4968165;28;20204;-94
2021/10/10 05:05:04;;;;;;;72.30;39.97;;;10.40;82.90;;;;;;4946487;29;20191;-95
2021/10/10 05:07:29;;;;;;;79.97;41.42;;;10.40;82.70;;;;;;4963029;29;20744;-94
2021/10/10 05:09:55;;;;;;;61.67;37.90;;;10.30;82.80;;;;;;4946417;29;20195;-95
2021/10/10 05:12:21;;;;;;;62.80;36.03;;;10.50;82.50;;;;;;4946405;28;20435;-95
2021/10/10 05:14:47;;;;;;;77.60;40.10;;;10.70;82.20;;;;;;4946840;29;20542;-95
2021/10/10 05:17:13;;;;;;;71.73;38.80;;;10.80;81.70;;;;;;4947403;29;20176;-95
2021/10/10 05:19:39;;;;;;;71.10;36.83;;;10.80;81.40;;;;;;4947235;29;20538;-95
2021/10/10 05:22:05;;;;;;;62.70;37.67;;;10.70;81.20;;;;;;4945354;29;20220;-95
2021/10/10 05:24:31;;;;;;;63.97;34.03;;;10.70;81.00;;;;;;4943389;29;20455;-94
2021/10/10 05:26:59;;;;;;;62.70;37.05;;;10.80;80.70;;;;;;4956763;29;20428;-94
2021/10/10 05:29:25;;;;;;;55.65;33.10;;;10.80;80.30;;;;;;4941277;29;20279;-94
2021/10/10 05:31:51;;;;;;;66.90;33.80;;;10.80;80.10;;;;;;4941043;29;20218;-93
2021/10/10 05:34:16;;;;;;;54.33;31.63;;;10.80;79.80;;;;;;4957858;28;20256;-94
2021/10/10 05:36:42;;;;;;;51.67;32.50;;;10.70;79.80;;;;;;4940599;29;20516;-94
2021/10/10 05:39:08;;;;;;;48.93;28.63;;;10.70;79.60;;;;;;4941113;29;20296;-94
2021/10/10 05:41:34;;;;;;;45.23;28.70;;;10.70;79.20;;;;;;4949489;28;20323;-94
2021/10/10 05:44:00;;;;;;;47.78;28.13;;;10.60;79.00;;;;;;4966838;28;20456;-94
2021/10/10 05:46:26;;;;;;;45.45;26.70;;;10.60;78.70;;;;;;4963264;28;20197;-94
2021/10/10 05:48:52;;;;;;;44.17;28.67;;;10.50;78.70;;;;;;4942402;29;20201;-94
2021/10/10 05:51:18;;;;;;;46.80;29.77;;;10.50;78.60;;;;;;4924849;29;20413;-94
2021/10/10 05:53:44;;;;;;;43.53;27.80;;;10.50;78.40;;;;;;4941633;28;20679;-95
2021/10/10 05:56:09;;;;;;;41.30;25.17;;;10.60;78.30;;;;;;4981219;28;20683;-94
2021/10/10 05:58:41;;;;;;;35.83;23.60;;;10.60;78.10;;;;;;4956505;29;20420;-94
2021/10/10 06:01:07;;;;;;;38.30;24.95;;;10.60;77.80;;;;;;4967881;28;20955;-94
2021/10/10 06:03:32;;;;;;;38.80;23.47;;;10.50;77.50;;;;;;4945106;29;20204;-93
2021/10/10 06:06:01;;;;;;;35.03;23.60;;;10.40;77.20;;;;;;4957229;28;20191;-94
2021/10/10 06:08:27;;;;;;;34.83;23.55;;;10.30;78.10;;;;;;4965816;28;20180;-93
2021/10/10 06:10:53;;;;;;;36.43;23.93;;;10.40;77.20;;;;;;4973943;28;20213;-94
2021/10/10 06:13:19;;;;;;;36.63;25.23;;;10.50;77.10;;;;;;4966853;28;20475;-94
2021/10/10 06:15:47;;;;;;;35.70;24.57;;;10.50;76.90;;;;;;4961719;28;20279;-94
2021/10/10 06:18:13;;;;;;;33.88;22.30;;;10.50;76.50;;;;;;4965891;28;20431;-93
2021/10/10 06:20:39;;;;;;;34.28;23.23;;;10.30;76.50;;;;;;4965661;28;20185;-93
2021/10/10 06:23:05;;;;;;;39.63;23.50;;;10.10;76.80;;;;;;4960643;28;20624;-93
2021/10/10 06:25:31;;;;;;;34.23;22.43;;;10.30;76.80;;;;;;4950711;28;20494;-94
2021/10/10 06:28:00;;;;;;;39.70;25.43;;;10.60;76.10;;;;;;4965747;28;20424;-93
2021/10/10 06:30:25;;;;;;;35.00;23.05;;;10.60;75.30;;;;;;4964477;28;20180;-94
2021/10/10 06:32:51;;;;;;;36.60;21.37;;;10.60;75.00;;;;;;4974523;28;20700;-94
2021/10/10 06:35:24;;;;;;;36.33;22.50;;;10.70;74.90;;;;;;4970516;28;20493;-94
2021/10/10 06:37:50;;;;;;;35.80;24.05;;;10.70;74.60;;;;;;4946574;29;20979;-94
2021/10/10 06:40:15;;;;;;;34.57;24.57;;;10.80;74.40;;;;;;4962264;29;20189;-94
2021/10/10 06:42:42;;;;;;;31.47;23.30;;;10.80;74.40;;;;;;4958471;28;20199;-94
2021/10/10 06:45:08;;;;;;;33.83;23.00;;;10.80;74.20;;;;;;4980858;28;20258;-94
2021/10/10 06:47:36;;;;;;;34.40;22.40;;;10.80;74.10;;;;;;4983544;28;20180;-94
2021/10/10 06:50:03;;;;;;;33.53;21.25;;;11.00;73.90;;;;;;4962685;28;20208;-94
2021/10/10 06:52:28;;;;;;;32.25;21.95;;;11.10;73.00;;;;;;4963380;28;20184;-94
2021/10/10 06:54:54;;;;;;;31.90;20.77;;;11.10;72.50;;;;;;4975571;28;20211;-93
2021/10/10 06:57:22;;;;;;;29.17;21.77;;;11.10;72.40;;;;;;4986391;28;20198;-94
2021/10/10 06:59:47;;;;;;;30.73;20.35;;;11.10;72.40;;;;;;4983366;28;20211;-93
2021/10/10 07:02:13;;;;;;;29.67;21.33;;;10.90;72.80;;;;;;4967870;28;20184;-93
2021/10/10 07:04:39;;;;;;;30.07;22.40;;;11.00;73.10;;;;;;4970869;28;20636;-93
2021/10/10 07:07:05;;;;;;;27.17;20.73;;;11.10;73.50;;;;;;4978883;28;20250;-92
2021/10/10 07:09:30;;;;;;;35.97;24.38;;;11.40;72.90;;;;;;4976250;28;20188;-92
2021/10/10 07:11:56;;;;;;;41.07;26.50;;;11.60;72.20;;;;;;4950512;29;20189;-93
2021/10/10 07:14:22;;;;;;;35.40;25.10;;;11.70;71.80;;;;;;4967080;28;20264;-92
2021/10/10 07:16:48;;;;;;;33.43;24.83;;;11.90;71.70;;;;;;4954026;29;20192;-93
2021/10/10 07:19:22;;;;;;;35.22;26.73;;;12.00;71.70;;;;;;4950173;29;20256;-91
2021/10/10 07:21:59;;;;;;;43.72;27.50;;;12.00;71.70;;;;;;4956245;29;20181;-92
2021/10/10 07:27:09;;;;;;;39.60;28.65;;;12.20;72.10;;;;;;4961308;29;20248;-91
2021/10/10 07:29:35;;;;;;;38.90;26.77;;;12.20;72.20;;;;;;4960104;29;20185;-92
2021/10/10 07:32:02;;;;;;;38.93;29.17;;;12.20;72.20;;;;;;4959606;29;20523;-92
2021/10/10 07:34:28;;;;;;;37.95;27.98;;;12.20;72.60;;;;;;4959400;29;20200;-91
2021/10/10 07:36:53;;;;;;;41.33;28.10;;;12.10;73.00;;;;;;4959113;29;20239;-90
2021/10/10 07:39:20;;;;;;;41.97;27.90;;;12.20;73.90;;;;;;4944156;29;20768;-91
2021/10/10 07:41:46;;;;;;;37.35;27.23;;;12.10;73.30;;;;;;4960953;29;20173;-92
2021/10/10 07:44:12;;;;;;;35.70;25.67;;;12.10;73.70;;;;;;4958768;29;20694;-92
2021/10/10 07:46:41;;;;;;;36.15;24.73;;;12.20;73.70;;;;;;4971918;28;20184;-92
2021/10/10 07:49:11;;;;;;;33.55;24.45;;;12.10;73.00;;;;;;4957318;29;20195;-92
2021/10/10 07:51:37;;;;;;;30.30;24.73;;;12.10;73.00;;;;;;4942151;29;20184;-92
2021/10/10 07:54:04;;;;;;;34.63;24.08;;;12.10;73.20;;;;;;4943681;29;20289;-92
2021/10/10 07:56:30;;;;;;;34.47;25.15;;;12.10;73.50;;;;;;4943242;29;20296;-93
2021/10/10 07:58:56;;;;;;;36.87;25.90;;;12.20;73.50;;;;;;4960871;29;20660;-93
2021/10/10 08:01:22;;;;;;;37.60;26.00;;;12.10;73.50;;;;;;4962058;29;20521;-92
2021/10/10 08:03:48;;;;;;;35.90;24.40;;;12.10;73.60;;;;;;4943976;29;20443;-92
2021/10/10 08:06:14;;;;;;;34.83;27.08;;;12.20;73.40;;;;;;4943572;29;20199;-92
2021/10/10 08:08:39;;;;;;;41.80;28.27;;;12.20;73.40;;;;;;4961544;28;20189;-92
2021/10/10 08:11:05;;;;;;;35.83;27.47;;;12.30;73.30;;;;;;4964567;29;20219;-91
2021/10/10 08:13:31;;;;;;;35.90;26.37;;;12.50;73.10;;;;;;4964763;29;20757;-92
2021/10/10 08:15:57;;;;;;;39.47;26.07;;;12.60;72.80;;;;;;4949351;29;20847;-92
2021/10/10 08:18:23;;;;;;;42.37;29.60;;;12.60;72.90;;;;;;4965148;29;20958;-92
2021/10/10 08:20:49;;;;;;;42.33;27.70;;;12.70;72.90;;;;;;4962082;29;20424;-91
2021/10/10 08:23:15;;;;;;;53.43;30.60;;;12.80;72.80;;;;;;4958771;28;20722;-91
2021/10/10 08:25:49;;;;;;;46.77;31.23;;;13.00;72.80;;;;;;4961927;29;20177;-92
2021/10/10 08:28:15;;;;;;;49.72;29.98;;;13.10;72.70;;;;;;4962189;29;20412;-92
2021/10/10 08:30:41;;;;;;;41.22;29.67;;;13.20;72.60;;;;;;4960383;29;20184;-92
2021/10/10 08:33:07;;;;;;;41.08;31.88;;;13.40;72.20;;;;;;4960048;29;20204;-92
2021/10/10 08:35:32;;;;;;;44.30;29.60;;;13.60;71.60;;;;;;4962184;29;20196;-93
2021/10/10 08:37:58;;;;;;;41.47;28.50;;;13.70;71.60;;;;;;4964321;29;20417;-93
2021/10/10 08:40:24;;;;;;;42.60;29.50;;;13.80;71.50;;;;;;4963724;29;20200;-93
2021/10/10 08:42:53;;;;;;;42.88;28.42;;;14.00;70.90;;;;;;4963611;28;20201;-93
2021/10/10 08:45:26;;;;;;;42.20;29.95;;;14.10;70.80;;;;;;4962152;29;20652;-93
2021/10/10 08:47:53;;;;;;;44.33;29.63;;;14.30;70.20;;;;;;4958674;29;20188;-94
2021/10/10 08:50:27;;;;;;;45.45;30.40;;;14.40;69.20;;;;;;4958523;29;20672;-93
2021/10/10 08:53:00;;;;;;;46.95;29.52;;;14.40;69.20;;;;;;4958043;28;20211;-93
2021/10/10 08:55:31;;;;;;;43.08;29.65;;;14.30;69.40;;;;;;4959362;29;20199;-93
2021/10/10 08:57:58;;;;;;;41.05;30.35;;;14.20;69.60;;;;;;4957715;29;20200;-93
2021/10/10 09:02:55;;;;;;;45.55;29.77;;;14.30;69.20;;;;;;4959369;28;20216;-94
2021/10/10 09:05:21;;;;;;;44.17;32.20;;;14.20;69.70;;;;;;4957324;29;20268;-93
2021/10/10 09:07:48;;;;;;;41.72;29.33;;;14.30;70.10;;;;;;4957008;29;20187;-93
2021/10/10 09:10:29;;;;;;;42.67;29.38;;;14.60;69.90;;;;;;4958684;29;20228;-93
2021/10/10 09:13:09;;;;;;;40.75;27.85;;;14.70;70.00;;;;;;4954098;28;20212;-93
2021/10/10 09:15:38;;;;;;;41.38;30.60;;;14.90;69.50;;;;;;4941139;29;20215;-94
2021/10/10 09:18:05;;;;;;;46.88;32.28;;;15.00;69.30;;;;;;4957277;29;20185;-93
2021/10/10 09:20:39;;;;;;;45.75;32.10;;;15.20;68.80;;;;;;4957459;28;20189;-94
2021/10/10 09:23:27;;;;;;;46.28;31.98;;;15.20;68.30;;;;;;4957077;28;20215;-93
2021/10/10 09:25:59;;;;;;;48.53;31.27;;;15.40;68.40;;;;;;4958428;29;20204;-92
2021/10/10 09:28:26;;;;;;;47.50;32.67;;;15.60;68.20;;;;;;4956767;29;20188;-92
2021/10/10 09:30:58;;;;;;;47.30;30.98;;;15.80;67.70;;;;;;4956939;29;20196;-92
2021/10/10 09:33:53;;;;;;;44.00;31.95;;;15.90;66.80;;;;;;4943123;29;20271;-93
2021/10/10 09:36:28;;;;;;;46.50;31.58;;;15.90;66.50;;;;;;4958948;29;20200;-93
2021/10/10 09:41:33;;;;;;;46.08;32.10;;;15.60;66.70;;;;;;4960698;29;20188;-94
2021/10/10 09:46:41;;;;;;;49.50;32.30;;;15.50;67.80;;;;;;4961042;29;20160;-93
2021/10/10 09:49:27;;;;;;;50.00;33.88;;;15.30;68.40;;;;;;4959284;29;20173;-93
2021/10/10 09:52:17;;;;;;;55.47;35.42;;;15.10;69.00;;;;;;4928206;29;20177;-93
2021/10/10 09:54:53;;;;;;;45.72;34.08;;;15.00;69.70;;;;;;4967011;28;20271;-92
2021/10/10 09:57:21;;;;;;;51.90;35.97;;;15.10;70.10;;;;;;4958934;28;20161;-93
2021/10/10 09:59:47;;;;;;;50.33;34.40;;;15.10;70.50;;;;;;4958602;28;20208;-92
2021/10/10 10:02:13;;;;;;;55.80;35.92;;;15.20;70.60;;;;;;4959016;28;20196;-92
2021/10/10 10:04:48;;;;;;;50.00;35.95;;;15.10;70.90;;;;;;4958306;28;20212;-93
2021/10/10 10:07:19;;;;;;;57.22;38.08;;;15.10;71.00;;;;;;4946315;29;20290;-94
2021/10/10 10:09:50;;;;;;;49.55;36.17;;;15.20;71.00;;;;;;4955747;29;20180;-94
2021/10/10 10:12:22;;;;;;;63.22;37.22;;;15.10;70.80;;;;;;4957579;29;20199;-93
2021/10/10 10:15:04;;;;;;;57.95;36.80;;;15.10;70.70;;;;;;4966751;29;20228;-94
2021/10/10 10:17:32;;;;;;;62.17;35.67;;;15.20;70.70;;;;;;4958379;29;20211;-93
2021/10/10 10:20:01;;;;;;;59.13;39.92;;;15.10;70.40;;;;;;4956684;29;20177;-93
2021/10/10 10:22:34;;;;;;;60.25;36.53;;;15.20;70.40;;;;;;4956605;28;20176;-93
2021/10/10 10:25:00;;;;;;;58.45;37.45;;;15.30;70.40;;;;;;4962746;29;20212;-93
2021/10/10 10:27:25;;;;;;;71.07;41.95;;;15.50;69.70;;;;;;4961792;29;20184;-93
2021/10/10 10:29:54;;;;;;;73.20;42.30;;;15.60;69.20;;;;;;4957486;29;20509;-94
2021/10/10 10:32:23;;;;;;;62.58;38.97;;;15.60;69.30;;;;;;4957382;28;20208;-93
2021/10/10 10:35:13;;;;;;;63.03;38.80;;;15.70;69.20;;;;;;4961641;29;20232;-93
2021/10/10 10:37:42;;;;;;;60.15;40.03;;;15.80;68.80;;;;;;4964436;29;20172;-93
2021/10/10 10:40:20;;;;;;;62.38;37.22;;;15.90;68.50;;;;;;4944006;29;20184;-93
2021/10/10 10:42:48;;;;;;;62.10;38.28;;;16.00;68.90;;;;;;4943866;29;20192;-92
2021/10/10 10:45:19;;;;;;;63.13;39.10;;;16.10;68.00;;;;;;4959728;29;20247;-93
2021/10/10 10:47:46;;;;;;;62.25;40.40;;;16.20;67.60;;;;;;4960307;29;20648;-93
2021/10/10 10:50:32;;;;;;;64.75;40.17;;;16.30;67.40;;;;;;4962800;29;20243;-92
2021/10/10 10:53:00;;;;;;;61.38;37.75;;;16.30;67.30;;;;;;4959986;28;20291;-92
2021/10/10 10:55:45;;;;;;;60.55;38.92;;;16.40;67.00;;;;;;4961909;29;20216;-92
2021/10/10 10:58:16;;;;;;;66.63;41.22;;;16.30;67.30;;;;;;4944188;29;20176;-93
2021/10/10 11:00:43;;;;;;;64.68;41.83;;;16.20;67.30;;;;;;4943910;29;20204;-93
2021/10/10 11:03:21;;;;;;;78.38;44.72;;;16.20;67.10;;;;;;4943480;29;20688;-93
2021/10/10 11:06:20;;;;;;;69.60;44.33;;;16.30;67.00;;;;;;4959545;29;20196;-93
2021/10/10 11:08:46;;;;;;;68.78;43.22;;;16.40;66.70;;;;;;4918178;29;20188;-92
2021/10/10 11:11:20;;;;;;;73.50;44.87;;;16.60;66.20;;;;;;4943094;29;20611;-93
2021/10/10 11:13:50;;;;;;;73.53;43.67;;;16.60;65.40;;;;;;4943721;29;20450;-93
2021/10/10 11:16:25;;;;;;;69.45;43.78;;;16.60;65.10;;;;;;4958966;29;20631;-93
2021/10/10 11:19:02;;;;;;;72.60;40.67;;;16.60;65.00;;;;;;4943256;29;20187;-92
2021/10/10 11:21:43;;;;;;;68.90;41.55;;;16.60;65.10;;;;;;4943344;29;20272;-92
2021/10/10 11:24:19;;;;;;;69.20;40.78;;;16.70;64.50;;;;;;4959407;29;20205;-93
2021/10/10 11:26:46;;;;;;;64.25;39.90;;;16.90;64.40;;;;;;4960241;29;20211;-93
2021/10/10 11:29:17;;;;;;;60.15;42.03;;;16.90;64.10;;;;;;4959171;29;20184;-93
2021/10/10 11:31:45;;;;;;;60.70;37.53;;;17.00;64.00;;;;;;4959362;29;20180;-93
2021/10/10 11:34:17;;;;;;;62.83;38.53;;;16.90;63.60;;;;;;4961969;28;20204;-92
2021/10/10 11:36:54;;;;;;;65.70;39.80;;;17.00;63.30;;;;;;4959687;29;20692;-93
2021/10/10 11:39:24;;;;;;;65.65;41.63;;;17.00;63.40;;;;;;4960817;29;20187;-92
2021/10/10 11:41:56;;;;;;;66.38;42.75;;;16.90;63.70;;;;;;4943055;29;20213;-93
2021/10/10 11:44:33;;;;;;;61.17;38.97;;;16.90;63.40;;;;;;4957626;28;20278;-94
2021/10/10 11:47:02;;;;;;;70.55;43.55;;;17.10;63.30;;;;;;4960757;29;20184;-94
2021/10/10 11:49:42;;;;;;;59.38;41.28;;;17.00;63.80;;;;;;4958931;29;20181;-93
2021/10/10 11:52:21;;;;;;;64.30;40.53;;;17.00;64.20;;;;;;4960085;29;20180;-93
2021/10/10 11:55:05;;;;;;;62.72;38.47;;;17.00;63.80;;;;;;4958744;29;20295;-92
2021/10/10 11:57:31;;;;;;;61.10;38.80;;;16.90;64.40;;;;;;4961663;29;20169;-94
2021/10/10 12:00:06;;;;;;;53.63;36.20;;;17.10;64.80;;;;;;4959111;29;20207;-93
2021/10/10 12:02:40;;;;;;;59.92;37.15;;;17.30;63.60;;;;;;4942504;28;20176;-93
2021/10/10 12:05:21;;;;;;;59.22;35.45;;;17.20;62.80;;;;;;4959391;29;20187;-93
2021/10/10 12:07:48;;;;;;;65.60;38.80;;;17.40;62.90;;;;;;4958425;29;20279;-92
2021/10/10 12:10:20;;;;;;;61.83;37.03;;;17.70;62.70;;;;;;4958414;29;20185;-92
2021/10/10 12:12:50;;;;;;;61.38;38.30;;;17.80;62.10;;;;;;4949730;28;20200;-92
2021/10/10 12:15:28;;;;;;;61.90;37.25;;;17.80;62.40;;;;;;4958387;29;20204;-93
2021/10/10 12:17:57;;;;;;;62.03;36.60;;;17.70;63.00;;;;;;4960602;29;20164;-93
2021/10/10 12:20:27;;;;;;;55.70;35.92;;;18.00;62.60;;;;;;4958284;29;20276;-93
2021/10/10 12:22:56;;;;;;;55.15;34.72;;;18.40;60.80;;;;;;4942284;29;20258;-92
2021/10/10 12:25:28;;;;;;;58.70;36.42;;;18.60;59.80;;;;;;4959669;29;20194;-93
2021/10/10 12:27:57;;;;;;;63.97;34.83;;;18.80;59.90;;;;;;4958465;29;20188;-92
2021/10/10 12:30:37;;;;;;;58.42;33.88;;;18.70;59.90;;;;;;4960329;29;20207;-92
2021/10/10 12:33:40;;;;;;;60.63;35.08;;;18.80;59.40;;;;;;4958309;28;20231;-92
2021/10/10 12:36:10;;;;;;;67.88;38.00;;;18.80;59.60;;;;;;4959200;29;20267;-93
2021/10/10 12:38:41;;;;;;;62.22;37.85;;;18.20;61.10;;;;;;4943513;29;20235;-93
2021/10/10 12:41:19;;;;;;;63.38;37.33;;;18.20;61.60;;;;;;4959860;29;20645;-93
2021/10/10 12:43:47;;;;;;;66.05;36.60;;;18.10;62.00;;;;;;4961737;28;20224;-93
2021/10/10 12:46:16;;;;;;;64.60;38.40;;;18.00;62.30;;;;;;4926764;29;20697;-93